Time;durP1;ratioP1;P1;durP2;ratioP2;P2;SDS_P1;SDS_P2;PMS_P1;PMS_P2;Temp;Humidity;BMP_temperature;BMP_pressure;BME280_temperature;BME280_humidity;BME280_pressure;Samples;Min_cycle;Max_cycle;Signal;HPM_P1;HPM_P2
2022/11/21 00:00:14;;;;;;;;;3.00;2.80;;;;;9.01;75.18;100550.72;4917634;28;46822;-59
2022/11/21 00:02:40;;;;;;;;;7.75;3.00;;;;;9.03;74.59;100551.34;4917877;28;45381;-59
2022/11/21 00:05:05;;;;;;;;;6.50;3.75;;;;;9.05;75.32;100543.78;4917745;28;45359;-57
2022/11/21 00:07:31;;;;;;;;;3.50;2.00;;;;;9.06;74.36;100552.84;4898704;28;45489;-56
2022/11/21 00:09:56;;;;;;;;;4.50;2.25;;;;;8.36;75.12;100433.47;4889756;28;45754;-57
2022/11/21 00:12:22;;;;;;;;;4.00;2.00;;;;;8.82;74.45;100514.06;4900074;28;45373;-56
2022/11/21 00:14:47;;;;;;;;;3.50;2.50;;;;;9.08;74.33;100553.50;4900542;28;45179;-56
2022/11/21 00:17:13;;;;;;;;;4.50;3.75;;;;;8.86;74.49;100511.75;4918269;28;45244;-56
2022/11/21 00:19:38;;;;;;;;;1.00;1.00;;;;;9.09;74.34;100545.06;4917721;28;45374;-58
2022/11/21 00:22:04;;;;;;;;;5.00;5.00;;;;;9.11;74.23;100546.78;4917610;28;45327;-60
2022/11/21 00:24:29;;;;;;;;;12.00;2.75;;;;;9.12;74.62;100541.06;4917791;28;45423;-57
2022/11/21 00:26:55;;;;;;;;;1.00;1.00;;;;;9.11;74.51;100524.88;4918266;28;45330;-58
2022/11/21 00:29:20;;;;;;;;;1.00;1.00;;;;;9.01;74.52;100508.84;4914382;28;45610;-59
2022/11/21 00:31:46;;;;;;;;;2.75;2.00;;;;;9.07;74.24;100506.09;4898248;29;45224;-59
2022/11/21 00:34:11;;;;;;;;;6.25;2.25;;;;;9.03;74.54;100501.25;4898911;29;45324;-58
2022/11/21 00:36:37;;;;;;;;;4.00;2.00;;;;;9.03;74.88;100501.25;4898610;29;45416;-57
2022/11/21 00:39:02;;;;;;;;;3.75;1.00;;;;;9.05;74.11;100500.00;4898220;29;46071;-56
2022/11/21 00:41:28;;;;;;;;;4.50;2.25;;;;;9.02;75.03;100486.72;4898194;29;45365;-54
2022/11/21 00:43:53;;;;;;;;;3.75;1.75;;;;;8.98;74.45;100474.50;4898463;28;45462;-55
2022/11/21 00:46:19;;;;;;;;;2.00;1.75;;;;;9.00;74.83;100486.06;4898766;29;45453;-58
2022/11/21 00:48:44;;;;;;;;;3.00;2.50;;;;;8.93;75.10;100480.56;4898150;29;45401;-59
2022/11/21 00:51:10;;;;;;;;;2.25;2.25;;;;;8.89;75.30;100479.31;4898157;29;45356;-57
2022/11/21 00:53:35;;;;;;;;;3.00;3.00;;;;;8.86;75.53;100477.00;4898395;29;45416;-57
2022/11/21 00:56:01;;;;;;;;;6.00;4.00;;;;;8.88;75.39;100472.16;4898134;29;45548;-58
2022/11/21 00:58:26;;;;;;;;;2.00;2.00;;;;;8.91;76.02;100473.66;4898269;29;45976;-58
2022/11/21 01:00:52;;;;;;;;;3.75;3.75;;;;;8.86;75.72;100462.47;4881106;29;45317;-58
2022/11/21 01:03:17;;;;;;;;;5.50;3.50;;;;;8.89;75.73;100462.91;4898378;29;45416;-57
2022/11/21 01:05:43;;;;;;;;;6.00;3.25;;;;;8.90;75.90;100463.72;4898124;29;45652;-55
2022/11/21 01:08:08;;;;;;;;;5.25;3.75;;;;;8.92;75.83;100458.91;4897919;29;46611;-56
2022/11/21 01:10:34;;;;;;;;;2.00;2.00;;;;;8.84;76.26;100453.59;4869545;28;45405;-55
2022/11/21 01:13:00;;;;;;;;;5.00;3.60;;;;;8.82;76.17;100457.41;4898234;29;45294;-56
2022/11/21 01:15:26;;;;;;;;;3.25;3.25;;;;;8.81;76.54;100450.25;4897569;29;45368;-57
2022/11/21 01:17:51;;;;;;;;;6.25;5.50;;;;;8.87;75.67;100455.94;4897925;29;45836;-58
2022/11/21 01:20:16;;;;;;;;;2.25;2.25;;;;;8.65;75.52;100409.59;4880953;29;45514;-56
2022/11/21 01:22:42;;;;;;;;;4.00;2.00;;;;;8.86;75.73;100438.66;4897909;29;45421;-56
2022/11/21 01:25:08;;;;;;;;;2.00;2.00;;;;;8.93;76.52;100457.84;4899930;29;45656;-57
2022/11/21 01:27:34;;;;;;;;;4.00;3.00;;;;;8.89;76.11;100438.28;4884229;29;45354;-58
2022/11/21 01:29:59;;;;;;;;;5.80;4.00;;;;;8.94;75.71;100449.44;4891865;28;45453;-56
2022/11/21 01:32:25;;;;;;;;;3.75;2.50;;;;;8.76;76.27;100419.91;4920084;28;45449;-56
2022/11/21 01:34:50;;;;;;;;;2.00;2.00;;;;;8.92;76.15;100448.78;4920215;28;45284;-56
2022/11/21 01:37:16;;;;;;;;;7.00;2.00;;;;;8.93;75.59;100441.44;4902686;28;46185;-55
2022/11/21 01:39:41;;;;;;;;;3.00;3.00;;;;;8.87;76.37;100429.44;4920074;28;45286;-56
2022/11/21 01:42:07;;;;;;;;;5.75;5.00;;;;;8.88;75.98;100413.84;4920028;28;45312;-57
2022/11/21 01:44:49;;;;;;;;;4.50;3.50;;;;;8.90;75.43;100434.47;4887425;28;45281;-58
2022/11/21 01:47:15;;;;;;;;;5.60;3.60;;;;;8.89;76.24;100426.47;4919678;28;45733;-57
2022/11/21 01:49:41;;;;;;;;;6.00;4.00;;;;;8.88;76.06;100422.91;4919627;28;45330;-58
2022/11/21 01:52:24;;;;;;;;;3.25;2.50;;;;;8.89;75.68;100412.78;4902777;28;45354;-58
2022/11/21 01:54:54;;;;;;;;;7.60;3.80;;;;;8.92;75.97;100405.00;4904322;28;45360;-58
2022/11/21 01:57:28;;;;;;;;;4.20;2.40;;;;;8.74;75.61;100371.91;4919439;28;46552;-57
2022/11/21 01:59:59;;;;;;;;;5.40;2.80;;;;;8.89;76.20;100396.34;4902715;28;45368;-56
2022/11/21 02:02:28;;;;;;;;;3.40;3.40;;;;;8.90;76.46;100395.31;4902507;28;45456;-57
2022/11/21 02:04:54;;;;;;;;;6.00;2.00;;;;;8.92;76.08;100393.22;4902943;28;45267;-58
2022/11/21 02:07:20;;;;;;;;;7.50;4.00;;;;;8.56;75.59;100339.72;4902525;28;46236;-56
2022/11/21 02:09:47;;;;;;;;;5.60;5.20;;;;;8.92;75.72;100398.69;4877518;28;45359;-56
2022/11/21 02:12:22;;;;;;;;;3.60;2.60;;;;;8.93;75.73;100392.16;4887106;28;45492;-55
2022/11/21 02:14:48;;;;;;;;;4.00;2.20;;;;;8.94;74.87;100391.97;4887423;28;45408;-58
2022/11/21 02:17:16;;;;;;;;;5.80;3.40;;;;;8.95;75.34;100390.03;4905460;28;46647;-57
2022/11/21 02:19:46;;;;;;;;;8.00;4.00;;;;;8.94;75.07;100383.75;4869841;28;46154;-53
2022/11/21 02:22:56;;;;;;;;;5.00;4.00;;;;;8.73;74.96;100345.63;4886000;29;45452;-57
2022/11/21 02:25:49;;;;;;;;;3.80;2.60;;;;;8.91;75.26;100378.69;4864269;29;45584;-58
2022/11/21 02:28:16;;;;;;;;;5.60;4.00;;;;;8.92;75.89;100371.31;4898433;29;45336;-56
2022/11/21 02:30:42;;;;;;;;;6.00;3.60;;;;;8.94;75.86;100367.31;4900101;28;45423;-56
2022/11/21 02:33:08;;;;;;;;;1.50;1.50;;;;;8.93;75.45;100365.63;4900281;29;45372;-57
2022/11/21 02:35:33;;;;;;;;;1.50;1.25;;;;;8.96;75.02;100358.88;4900018;28;45606;-59
2022/11/21 02:38:04;;;;;;;;;4.25;4.25;;;;;8.98;74.90;100353.19;4914840;28;46559;-58
2022/11/21 02:40:35;;;;;;;;;2.00;1.80;;;;;8.92;74.62;100338.47;4887166;28;45756;-57
2022/11/21 02:43:22;;;;;;;;;2.40;2.00;;;;;8.93;74.79;100343.72;4902577;28;45255;-56
2022/11/21 02:45:47;;;;;;;;;6.80;3.00;;;;;8.97;74.93;100346.91;4903921;28;45359;-57
2022/11/21 02:48:13;;;;;;;;;6.00;1.50;;;;;9.00;75.37;100351.94;4902073;28;46365;-58
2022/11/21 02:50:39;;;;;;;;;1.50;1.00;;;;;8.79;74.88;100320.16;4901869;28;46400;-57
2022/11/21 02:53:07;;;;;;;;;2.60;2.60;;;;;8.89;75.68;100337.00;4919328;28;45353;-57
2022/11/21 02:55:32;;;;;;;;;4.80;4.00;;;;;8.91;75.34;100334.88;4919223;28;45399;-58
2022/11/21 02:57:58;;;;;;;;;3.50;2.50;;;;;8.74;74.87;100298.91;4901652;28;47233;-56
2022/11/21 03:00:24;;;;;;;;;4.00;4.00;;;;;8.76;75.61;100299.50;4918851;28;45861;-56
2022/11/21 03:02:49;;;;;;;;;10.00;5.50;;;;;8.94;75.28;100331.75;4919127;28;45412;-53
2022/11/21 03:05:16;;;;;;;;;3.50;3.50;;;;;8.91;75.29;100320.38;4919126;28;45386;-56
2022/11/21 03:07:42;;;;;;;;;7.20;3.00;;;;;8.91;75.54;100320.38;4901929;28;46194;-56
2022/11/21 03:10:07;;;;;;;;;6.50;4.00;;;;;8.95;75.82;100324.34;4880915;28;45831;-58
2022/11/21 03:12:36;;;;;;;;;8.00;2.25;;;;;8.97;75.50;100322.28;4899774;29;45438;-58
2022/11/21 03:15:03;;;;;;;;;6.00;3.40;;;;;8.96;74.88;100326.03;4898595;28;45635;-58
2022/11/21 03:17:29;;;;;;;;;3.40;2.00;;;;;8.94;75.54;100322.69;4918539;28;46299;-55
2022/11/21 03:19:54;;;;;;;;;3.00;2.00;;;;;8.96;75.20;100306.88;4918942;28;45328;-51
2022/11/21 03:22:20;;;;;;;;;2.50;2.50;;;;;8.99;74.89;100316.56;4918650;28;45318;-53
2022/11/21 03:24:45;;;;;;;;;4.25;3.00;;;;;8.91;75.24;100290.28;4918877;28;45523;-55
2022/11/21 03:27:11;;;;;;;;;7.00;2.50;;;;;8.96;75.45;100290.44;4901452;28;45628;-56
2022/11/21 03:29:36;;;;;;;;;4.75;3.00;;;;;8.97;75.26;100289.44;4901305;28;45327;-57
2022/11/21 03:32:02;;;;;;;;;5.50;5.50;;;;;8.99;74.42;100292.78;4918711;28;45453;-58
2022/11/21 03:34:27;;;;;;;;;4.00;4.00;;;;;8.98;74.90;100279.28;4918687;28;45255;-58
2022/11/21 03:36:53;;;;;;;;;5.50;3.75;;;;;8.99;74.84;100275.50;4917941;28;46278;-59
2022/11/21 03:39:18;;;;;;;;;2.00;2.00;;;;;8.96;75.65;100254.88;4885328;28;45825;-57
2022/11/21 03:41:43;;;;;;;;;5.25;2.75;;;;;8.97;75.13;100252.97;4900462;28;45423;-57
2022/11/21 03:44:10;;;;;;;;;7.75;3.75;;;;;8.99;75.48;100261.81;4918722;28;45322;-58
2022/11/21 03:46:41;;;;;;;;;10.80;5.60;;;;;8.99;75.11;100248.13;4899774;28;47586;-56
2022/11/21 03:49:06;;;;;;;;;6.80;3.00;;;;;9.00;74.62;100255.28;4901366;28;45516;-55
2022/11/21 03:51:32;;;;;;;;;11.75;7.00;;;;;9.01;75.46;100246.88;4917989;28;45346;-57
2022/11/21 03:53:57;;;;;;;;;7.75;5.00;;;;;8.94;75.36;100237.81;4918148;28;45379;-58
2022/11/21 03:56:23;;;;;;;;;3.50;3.00;;;;;9.01;74.89;100241.38;4917565;28;46307;-58
2022/11/21 03:58:48;;;;;;;;;10.25;6.00;;;;;9.03;75.03;100235.72;4917697;28;45946;-57
2022/11/21 04:01:14;;;;;;;;;5.50;3.25;;;;;8.67;75.16;100186.75;4900715;28;45397;-57
2022/11/21 04:03:43;;;;;;;;;1.00;1.00;;;;;8.98;75.46;100230.88;4901124;28;45329;-58
2022/11/21 04:06:10;;;;;;;;;5.80;3.20;;;;;8.99;74.62;100226.22;4900894;28;45528;-55
2022/11/21 04:08:35;;;;;;;;;9.00;7.00;;;;;8.97;74.98;100212.78;4889997;28;45362;-56
2022/11/21 04:11:01;;;;;;;;;3.25;3.25;;;;;8.97;75.11;100207.31;4879986;29;45371;-56
2022/11/21 04:13:26;;;;;;;;;4.75;4.50;;;;;8.78;74.76;100166.09;4902815;28;45490;-56
2022/11/21 04:15:52;;;;;;;;;9.25;5.00;;;;;8.93;75.22;100190.44;4917248;28;45632;-58
2022/11/21 04:18:17;;;;;;;;;8.75;3.75;;;;;8.94;75.75;100200.34;4917868;28;45369;-58
2022/11/21 04:20:43;;;;;;;;;6.25;3.75;;;;;8.90;75.61;100188.16;4917632;28;45444;-57
2022/11/21 04:23:08;;;;;;;;;4.50;3.75;;;;;8.80;74.70;100193.22;4917878;28;45314;-57
2022/11/21 04:25:34;;;;;;;;;6.50;6.00;;;;;8.77;75.04;100186.28;4900215;28;45498;-58
2022/11/21 04:28:00;;;;;;;;;7.00;5.25;;;;;8.67;75.32;100174.94;4900002;28;45480;-57
2022/11/21 04:30:25;;;;;;;;;8.60;7.60;;;;;8.64;75.94;100170.72;4900609;28;45331;-55
2022/11/21 04:32:51;;;;;;;;;5.00;4.50;;;;;8.62;76.06;100172.00;4900760;28;45379;-55
2022/11/21 04:35:17;;;;;;;;;6.00;6.00;;;;;8.57;76.06;100156.22;4900063;28;45454;-55
2022/11/21 04:37:42;;;;;;;;;7.50;5.75;;;;;8.64;75.29;100164.44;4900003;28;45918;-55
2022/11/21 04:40:08;;;;;;;;;5.50;5.25;;;;;8.61;76.53;100154.75;4917885;28;45381;-57
2022/11/21 04:42:34;;;;;;;;;9.00;5.20;;;;;8.62;76.49;100158.31;4904626;28;45548;-59
2022/11/21 04:44:59;;;;;;;;;8.50;7.50;;;;;8.55;76.06;100147.41;4901136;28;45603;-58
2022/11/21 04:47:25;;;;;;;;;5.75;4.50;;;;;8.55;76.58;100152.88;4898767;29;45447;-57
2022/11/21 04:49:50;;;;;;;;;7.25;5.25;;;;;8.56;76.38;100140.88;4907593;28;45404;-58
2022/11/21 04:52:16;;;;;;;;;8.00;6.75;;;;;8.53;75.33;100141.28;4917478;28;45339;-58
2022/11/21 04:54:41;;;;;;;;;6.50;6.50;;;;;8.54;75.45;100132.88;4917266;28;46148;-59
2022/11/21 04:57:07;;;;;;;;;9.00;6.00;;;;;8.26;76.27;100092.94;4900041;28;45443;-56
2022/11/21 04:59:32;;;;;;;;;5.50;3.00;;;;;8.46;76.18;100121.28;4920068;28;45513;-56
2022/11/21 05:01:58;;;;;;;;;6.00;6.00;;;;;8.46;76.66;100116.66;4897304;29;45456;-54
2022/11/21 05:04:23;;;;;;;;;6.50;6.50;;;;;8.43;76.28;100110.78;4901744;29;46084;-52
2022/11/21 05:06:49;;;;;;;;;7.00;5.50;;;;;8.19;76.22;100074.84;4901521;29;45542;-56
2022/11/21 05:09:14;;;;;;;;;6.00;6.00;;;;;8.31;76.59;100092.28;4901571;29;45482;-57
2022/11/21 05:14:25;;;;;;;;;7.00;6.00;;;;;8.38;76.86;100095.03;4901747;29;45485;-58
2022/11/21 05:16:51;;;;;;;;;6.60;3.00;;;;;8.38;76.30;100090.38;4901292;29;45385;-58
2022/11/21 05:19:16;;;;;;;;;7.00;5.60;;;;;8.36;76.23;100089.75;4868810;29;45393;-57
2022/11/21 05:21:42;;;;;;;;;5.00;4.25;;;;;8.41;76.67;100080.91;4901721;29;45500;-58
2022/11/21 05:24:07;;;;;;;;;9.00;7.00;;;;;8.32;76.82;100057.59;4900962;29;46256;-58
2022/11/21 05:26:33;;;;;;;;;5.00;3.50;;;;;8.41;76.32;100067.22;4901279;29;45280;-58
2022/11/21 05:28:59;;;;;;;;;8.50;6.00;;;;;8.22;76.07;100045.19;4901318;29;45255;-57
2022/11/21 05:31:24;;;;;;;;;7.00;6.00;;;;;8.30;76.68;100066.00;4901641;29;45149;-55
2022/11/21 05:33:49;;;;;;;;;7.25;7.00;;;;;8.44;75.81;100093.31;4901431;29;46343;-56
2022/11/21 05:36:15;;;;;;;;;8.00;5.00;;;;;8.37;76.66;100087.84;4900635;29;45340;-54
2022/11/21 05:38:40;;;;;;;;;9.25;5.50;;;;;8.49;76.53;100097.06;4890860;28;45482;-57
2022/11/21 05:41:06;;;;;;;;;9.75;7.25;;;;;8.16;76.17;100037.84;4903098;28;45334;-56
2022/11/21 05:43:46;;;;;;;;;9.75;7.50;;;;;8.49;76.34;100099.00;4920041;28;46049;-59
2022/11/21 05:46:13;;;;;;;;;7.40;7.00;;;;;8.48;75.88;100078.16;4919474;28;45309;-56
2022/11/21 05:48:39;;;;;;;;;6.20;3.40;;;;;8.49;76.06;100075.19;4919999;28;45253;-58
2022/11/21 05:51:05;;;;;;;;;6.25;5.50;;;;;8.26;75.53;100024.56;4920173;28;45344;-58
2022/11/21 05:53:30;;;;;;;;;10.00;4.50;;;;;8.34;76.08;100028.13;4919383;28;46628;-58
2022/11/21 05:55:59;;;;;;;;;6.25;6.25;;;;;8.52;75.81;100052.06;4919378;28;45255;-58
2022/11/21 05:58:24;;;;;;;;;7.60;6.40;;;;;8.14;76.70;100005.28;4902329;28;45324;-59
2022/11/21 06:00:55;;;;;;;;;8.25;5.50;;;;;8.45;76.71;100046.63;4902915;28;45417;-57
2022/11/21 06:03:26;;;;;;;;;7.60;4.80;;;;;8.49;75.99;100047.84;4919213;28;46371;-57
2022/11/21 06:05:59;;;;;;;;;6.20;4.00;;;;;8.46;76.06;100029.16;4919542;28;45443;-58
2022/11/21 06:08:26;;;;;;;;;7.60;6.00;;;;;8.45;76.60;100015.69;4919392;28;45267;-55
2022/11/21 06:10:52;;;;;;;;;4.00;4.00;;;;;8.49;76.17;100009.56;4918932;28;45420;-56
2022/11/21 06:13:21;;;;;;;;;10.25;7.50;;;;;8.38;76.59;99991.94;4873241;28;45490;-58
2022/11/21 06:16:07;;;;;;;;;12.80;6.40;;;;;8.43;76.52;99979.50;4896078;28;45257;-58
2022/11/21 06:18:34;;;;;;;;;7.00;7.00;;;;;8.54;76.07;99989.81;4919229;28;45303;-56
2022/11/21 06:21:04;;;;;;;;;8.20;5.20;;;;;8.56;76.82;99987.69;4902508;28;45357;-57
2022/11/21 06:23:29;;;;;;;;;8.80;7.40;;;;;8.58;76.35;99984.75;4918529;28;45662;-57
2022/11/21 06:25:57;;;;;;;;;8.00;6.50;;;;;8.59;76.10;99997.38;4919149;28;45513;-57
2022/11/21 06:28:22;;;;;;;;;6.20;6.20;;;;;8.55;75.79;99994.22;4901980;28;45553;-54
2022/11/21 06:30:50;;;;;;;;;11.00;8.00;;;;;8.59;76.11;99976.31;4919489;28;45684;-57
2022/11/21 06:33:16;;;;;;;;;11.20;11.20;;;;;8.60;75.54;99977.97;4919129;28;46766;-58
2022/11/21 06:35:42;;;;;;;;;9.80;9.00;;;;;8.56;75.60;99974.00;4885686;28;45733;-58
2022/11/21 06:38:07;;;;;;;;;11.50;8.25;;;;;8.37;75.61;99948.38;4919379;28;45637;-58
2022/11/21 06:40:33;;;;;;;;;12.50;9.25;;;;;8.47;76.40;99962.44;4919379;28;45309;-56
2022/11/21 06:42:58;;;;;;;;;8.25;7.50;;;;;8.49;76.20;99960.31;4919049;28;46385;-56
2022/11/21 06:45:24;;;;;;;;;10.00;8.25;;;;;8.49;76.03;99960.31;4919272;28;45412;-56
2022/11/21 06:47:49;;;;;;;;;11.00;10.25;;;;;8.40;76.07;99970.66;4919149;28;45453;-56
2022/11/21 06:50:15;;;;;;;;;14.00;11.00;;;;;8.38;76.28;99970.06;4919310;28;45527;-55
2022/11/21 06:52:41;;;;;;;;;13.75;10.00;;;;;8.46;76.51;99959.91;4918591;28;45989;-57
2022/11/21 06:55:08;;;;;;;;;15.25;12.75;;;;;8.48;76.48;99953.19;4919161;28;45334;-57
2022/11/21 06:57:33;;;;;;;;;14.00;12.20;;;;;8.40;76.26;99923.34;4918890;28;45516;-60
2022/11/21 06:59:59;;;;;;;;;13.50;11.50;;;;;8.48;76.55;99920.38;4919022;28;45488;-58
2022/11/21 07:02:26;;;;;;;;;15.00;12.50;;;;;8.53;76.02;99927.94;4918762;28;45825;-58
2022/11/21 07:04:51;;;;;;;;;12.80;9.80;;;;;8.51;75.72;99911.78;4901758;28;45525;-60
2022/11/21 07:07:17;;;;;;;;;17.75;15.00;;;;;8.40;76.15;99905.03;4919079;28;45405;-59
2022/11/21 07:09:43;;;;;;;;;14.25;12.50;;;;;8.38;76.29;99887.19;4918907;28;45467;-57
2022/11/21 07:14:53;;;;;;;;;12.80;12.80;;;;;8.33;75.50;99868.69;4873333;29;45278;-56
2022/11/21 07:17:19;;;;;;;;;12.25;12.25;;;;;8.31;76.01;99870.81;4866632;28;45623;-56
2022/11/21 07:19:44;;;;;;;;;16.50;12.75;;;;;8.29;75.96;99859.25;4899800;29;45184;-56
2022/11/21 07:22:09;;;;;;;;;9.50;9.00;;;;;8.20;76.50;99845.00;4898582;29;46378;-57
2022/11/21 07:24:35;;;;;;;;;13.75;13.25;;;;;8.21;75.62;99854.88;4899524;29;45344;-61
2022/11/21 07:27:01;;;;;;;;;12.50;12.50;;;;;8.22;76.15;99845.63;4882377;29;45255;-61
2022/11/21 07:29:27;;;;;;;;;11.00;7.50;;;;;8.22;75.61;99839.31;4899956;28;45584;-57
2022/11/21 07:31:53;;;;;;;;;22.25;12.75;;;;;8.20;75.88;99835.94;4899336;28;45865;-60
2022/11/21 07:34:19;;;;;;;;;11.80;9.00;;;;;8.14;75.68;99826.75;4899299;29;45819;-56
2022/11/21 07:36:44;;;;;;;;;16.25;14.50;;;;;8.08;75.87;99827.63;4899392;29;45455;-58
2022/11/21 07:39:10;;;;;;;;;12.50;10.50;;;;;8.03;76.01;99819.22;4898947;29;45409;-58
2022/11/21 07:41:36;;;;;;;;;12.75;9.00;;;;;7.79;75.67;99773.31;4899105;29;46326;-56
2022/11/21 07:44:01;;;;;;;;;13.25;12.25;;;;;8.03;75.83;99820.06;4881681;29;45419;-57
2022/11/21 07:46:27;;;;;;;;;19.50;17.25;;;;;8.00;75.50;99825.97;4899338;29;45525;-58
2022/11/21 07:48:52;;;;;;;;;13.00;12.50;;;;;8.00;75.64;99820.50;4882027;29;45299;-57
2022/11/21 07:51:18;;;;;;;;;16.75;16.00;;;;;7.91;75.52;99811.72;4898934;29;46479;-58
2022/11/21 07:53:43;;;;;;;;;17.00;14.50;;;;;7.91;75.95;99806.25;4898865;29;45316;-58
2022/11/21 07:56:09;;;;;;;;;15.50;13.00;;;;;7.88;75.74;99786.75;4898902;29;45369;-59
2022/11/21 07:58:34;;;;;;;;;23.50;16.25;;;;;7.85;76.29;99774.34;4898992;29;45360;-57
2022/11/21 08:01:04;;;;;;;;;21.75;17.25;;;;;7.80;76.48;99765.97;4881334;29;46115;-60
2022/11/21 08:03:30;;;;;;;;;26.20;19.20;;;;;7.85;76.29;99760.69;4881794;29;45445;-58
2022/11/21 08:05:56;;;;;;;;;22.20;17.40;;;;;7.85;76.53;99747.03;4898961;29;45355;-56
2022/11/21 08:08:21;;;;;;;;;19.75;19.50;;;;;7.89;76.31;99744.69;4898817;29;45810;-59
2022/11/21 08:10:47;;;;;;;;;26.00;22.50;;;;;7.89;76.32;99750.97;4872400;28;47366;-58
2022/11/21 08:13:12;;;;;;;;;28.25;17.25;;;;;7.85;76.83;99750.56;4915304;28;45389;-58
2022/11/21 08:15:43;;;;;;;;;21.25;18.50;;;;;7.56;76.45;99711.00;4903535;28;45355;-60
2022/11/21 08:18:10;;;;;;;;;21.60;15.80;;;;;7.70;77.12;99726.28;4862537;29;46035;-56
2022/11/21 08:20:36;;;;;;;;;34.80;27.40;;;;;7.89;76.50;99745.50;4880191;28;47194;-57
2022/11/21 08:23:01;;;;;;;;;22.75;19.25;;;;;7.91;76.93;99743.41;4898355;29;45470;-54
2022/11/21 08:25:27;;;;;;;;;22.75;18.50;;;;;7.83;77.08;99725.38;4897818;28;45582;-57
2022/11/21 08:27:55;;;;;;;;;18.50;17.50;;;;;7.52;76.86;99682.47;4898291;28;45445;-58
2022/11/21 08:30:21;;;;;;;;;20.80;17.80;;;;;7.67;76.69;99702.16;4881619;29;45852;-59
2022/11/21 08:32:46;;;;;;;;;17.25;17.25;;;;;7.87;76.35;99728.50;4898791;29;45367;-56
2022/11/21 08:35:12;;;;;;;;;17.00;15.00;;;;;7.97;76.66;99742.53;4899095;29;45379;-54
2022/11/21 08:37:37;;;;;;;;;19.25;17.50;;;;;7.93;76.18;99746.75;4898453;28;45542;-57
2022/11/21 08:40:03;;;;;;;;;19.75;17.25;;;;;7.79;76.44;99707.75;4866311;29;47675;-57
2022/11/21 08:42:29;;;;;;;;;19.75;17.25;;;;;7.78;77.07;99713.44;4881626;29;45398;-57
2022/11/21 08:44:54;;;;;;;;;18.75;15.25;;;;;7.91;77.03;99748.03;4899176;29;45437;-55
2022/11/21 08:47:20;;;;;;;;;13.00;12.50;;;;;7.66;77.24;99703.19;4891019;28;45458;-55
2022/11/21 08:49:46;;;;;;;;;23.25;14.25;;;;;7.92;77.47;99742.34;4894617;28;45807;-58
2022/11/21 08:52:16;;;;;;;;;18.00;17.80;;;;;7.85;76.99;99711.50;4895371;28;45496;-55
2022/11/21 08:54:43;;;;;;;;;15.80;12.80;;;;;7.95;77.12;99719.22;4878561;29;45382;-56
2022/11/21 08:57:08;;;;;;;;;22.60;17.60;;;;;7.94;76.89;99715.66;4895759;28;45434;-58
2022/11/21 08:59:34;;;;;;;;;17.00;15.00;;;;;7.96;77.33;99699.03;4861747;28;45410;-59
2022/11/21 09:01:59;;;;;;;;;19.75;15.75;;;;;7.73;77.42;99630.25;4895089;29;45657;-57
2022/11/21 09:04:25;;;;;;;;;18.25;14.75;;;;;8.05;76.83;99675.03;4895634;29;45444;-59
2022/11/21 09:06:50;;;;;;;;;19.75;16.25;;;;;8.02;77.84;99669.97;4896103;29;45453;-60
2022/11/21 09:09:16;;;;;;;;;17.75;16.50;;;;;8.01;77.12;99671.91;4901011;28;46272;-54
2022/11/21 09:11:41;;;;;;;;;20.25;17.75;;;;;7.99;77.09;99677.56;4896053;28;45501;-57
2022/11/21 09:19:35;;;;;;;;;16.20;12.60;;;;;8.07;77.63;99665.50;4895190;29;45902;-58
2022/11/21 09:22:00;;;;;;;;;13.50;12.75;;;;;8.08;77.67;99655.44;4895088;28;45494;-57
2022/11/21 09:24:26;;;;;;;;;15.50;11.00;;;;;8.07;77.39;99646.38;4882653;29;45479;-58
2022/11/21 09:26:51;;;;;;;;;13.00;13.00;;;;;8.05;76.99;99637.56;4894974;29;45494;-57
2022/11/21 09:29:17;;;;;;;;;20.75;18.25;;;;;8.10;77.72;99634.16;4894137;28;46384;-57
2022/11/21 09:31:42;;;;;;;;;13.25;11.75;;;;;8.06;77.00;99613.84;4894976;29;45510;-56
2022/11/21 09:34:08;;;;;;;;;13.25;9.75;;;;;8.08;77.42;99604.34;4878512;29;45539;-54
2022/11/21 09:36:34;;;;;;;;;11.75;11.50;;;;;8.10;77.54;99602.22;4894351;28;45681;-56
2022/11/21 09:38:59;;;;;;;;;12.25;11.75;;;;;8.13;76.78;99593.56;4861996;29;46457;-54
2022/11/21 09:41:50;;;;;;;;;16.25;12.75;;;;;8.14;77.33;99586.22;4878763;29;45404;-57
2022/11/21 09:44:28;;;;;;;;;11.60;9.00;;;;;8.11;77.44;99573.84;4862342;29;45603;-57
2022/11/21 09:47:01;;;;;;;;;8.00;8.00;;;;;7.20;77.25;99423.97;4880281;29;45336;-56
2022/11/21 09:49:30;;;;;;;;;11.60;9.80;;;;;8.03;77.49;99535.88;4880366;29;45545;-60
2022/11/21 09:51:55;;;;;;;;;14.60;12.40;;;;;8.09;77.36;99532.22;4881336;29;45485;-60
2022/11/21 09:54:29;;;;;;;;;13.00;11.00;;;;;8.12;77.01;99530.94;4896204;28;45334;-55
2022/11/21 09:56:55;;;;;;;;;12.80;12.00;;;;;8.09;77.62;99528.66;4900131;28;45881;-58
2022/11/21 09:59:26;;;;;;;;;11.60;11.60;;;;;8.08;77.19;99530.56;4881333;29;45813;-58
2022/11/21 10:01:52;;;;;;;;;14.00;10.00;;;;;8.08;78.18;99514.16;4880371;29;45471;-55
2022/11/21 10:04:17;;;;;;;;;14.00;12.25;;;;;8.05;77.89;99502.84;4881228;29;45767;-53
2022/11/21 10:07:02;;;;;;;;;15.50;12.50;;;;;8.14;76.98;99505.06;4898519;28;45424;-56
2022/11/21 10:09:57;;;;;;;;;11.40;9.40;;;;;8.17;76.62;99492.00;4898202;29;47480;-57
2022/11/21 10:12:52;;;;;;;;;11.60;11.40;;;;;8.14;77.60;99487.81;4880438;28;45663;-60
2022/11/21 10:15:23;;;;;;;;;10.60;10.60;;;;;8.11;77.11;99474.63;4886781;28;45497;-55
2022/11/21 10:18:27;;;;;;;;;13.20;10.80;;;;;8.24;77.23;99458.06;4848315;28;45555;-60
2022/11/21 10:21:14;;;;;;;;;14.80;8.40;;;;;8.28;76.21;99455.72;4860809;29;45871;-59
2022/11/21 10:23:52;;;;;;;;;10.60;7.80;;;;;8.36;76.98;99451.81;4897596;28;45432;-59
2022/11/21 10:26:42;;;;;;;;;9.40;7.60;;;;;8.41;76.71;99450.09;4897124;28;45466;-58
2022/11/21 10:29:36;;;;;;;;;8.20;7.40;;;;;8.44;75.60;99440.59;4897986;29;45466;-60
2022/11/21 10:32:10;;;;;;;;;9.80;7.80;;;;;8.49;76.48;99428.97;4898116;29;45910;-56
2022/11/21 10:34:37;;;;;;;;;13.00;9.80;;;;;8.49;76.07;99421.56;4866337;29;45394;-58
2022/11/21 10:37:09;;;;;;;;;13.60;8.20;;;;;8.30;76.43;99379.78;4900742;28;45432;-58
2022/11/21 10:39:40;;;;;;;;;6.00;6.00;;;;;8.50;75.71;99415.03;4881351;29;45438;-56
2022/11/21 10:42:25;;;;;;;;;10.20;8.80;;;;;8.47;75.72;99415.50;4865715;29;46274;-58
2022/11/21 10:47:36;;;;;;;;;7.00;7.00;;;;;8.55;75.52;99389.78;4897614;29;45696;-60
2022/11/21 10:50:08;;;;;;;;;8.40;8.40;;;;;8.56;75.50;99377.78;4865370;29;45649;-57
2022/11/21 10:52:52;;;;;;;;;9.00;6.00;;;;;8.52;75.74;99363.72;4881396;29;46101;-56
2022/11/21 10:55:18;;;;;;;;;6.80;6.00;;;;;8.59;75.67;99362.81;4880357;29;45794;-57
2022/11/21 10:57:47;;;;;;;;;8.00;7.25;;;;;8.56;75.11;99364.09;4897627;29;45485;-59
2022/11/21 11:00:13;;;;;;;;;8.00;8.00;;;;;8.59;75.33;99360.88;4864874;29;45649;-58
2022/11/21 11:02:40;;;;;;;;;10.50;8.25;;;;;8.36;74.79;99320.59;4896015;28;46410;-57
2022/11/21 11:05:23;;;;;;;;;9.20;4.00;;;;;8.59;74.68;99349.94;4862435;29;45427;-61
2022/11/21 11:08:04;;;;;;;;;9.40;8.20;;;;;8.60;75.16;99343.41;4895690;29;45674;-62
2022/11/21 11:10:31;;;;;;;;;11.00;8.00;;;;;8.63;75.37;99340.22;4895891;29;45521;-60
2022/11/21 11:16:04;;;;;;;;;8.20;7.60;;;;;8.64;75.00;99339.13;4886475;28;45498;-61
2022/11/21 11:18:32;;;;;;;;;14.60;10.00;;;;;8.67;75.43;99326.91;4866022;28;45457;-61
2022/11/21 11:21:17;;;;;;;;;11.40;7.40;;;;;8.68;75.77;99325.81;4879217;29;45855;-60
2022/11/21 11:23:43;;;;;;;;;8.40;7.80;;;;;8.69;75.21;99316.56;4894720;28;46947;-55
2022/11/21 11:26:22;;;;;;;;;8.00;8.00;;;;;8.67;75.84;99305.88;4905284;28;45952;-54
2022/11/21 11:28:48;;;;;;;;;7.80;6.60;;;;;8.73;75.51;99306.81;4905889;28;45666;-60
2022/11/21 11:31:13;;;;;;;;;8.00;5.75;;;;;8.76;75.55;99298.13;4882402;29;45654;-56
2022/11/21 11:33:40;;;;;;;;;9.75;8.50;;;;;8.78;74.98;99287.81;4897994;29;46524;-57
2022/11/21 11:36:30;;;;;;;;;10.80;8.00;;;;;8.80;74.75;99282.91;4898417;28;45327;-56
2022/11/21 11:38:59;;;;;;;;;10.40;7.00;;;;;8.78;74.99;99265.91;4882147;29;45470;-60
2022/11/21 11:48:14;;;;;;;;;5.60;3.00;;;;;8.60;75.49;99203.09;4914758;28;45453;-60
2022/11/21 11:50:43;;;;;;;;;11.20;7.40;;;;;8.77;75.25;99203.22;4885327;28;45256;-59
2022/11/21 11:53:17;;;;;;;;;8.20;8.20;;;;;8.71;74.27;99188.59;4901442;28;45588;-58
2022/11/21 11:56:12;;;;;;;;;9.80;6.00;;;;;8.80;74.35;99170.75;4885473;28;46488;-60
2022/11/21 11:58:41;;;;;;;;;8.80;6.20;;;;;8.87;75.24;99147.91;4896439;28;45782;-60